sensor_id;sensor_type;location;lat;lon;timestamp;temperature;humidity
11772;DHT22;12556;55.748;13.194;2023-01-30T00:00:49;4.80;99.90
11772;DHT22;12556;55.748;13.194;2023-01-30T00:03:18;4.80;99.90
11772;DHT22;12556;55.748;13.194;2023-01-30T00:05:45;4.80;99.90
11772;DHT22;12556;55.748;13.194;2023-01-30T00:08:12;4.80;99.90
11772;DHT22;12556;55.748;13.194;2023-01-30T00:10:39;4.80;99.90
11772;DHT22;12556;55.748;13.194;2023-01-30T00:13:06;4.80;99.90
11772;DHT22;12556;55.748;13.194;2023-01-30T00:15:33;4.90;99.90
11772;DHT22;12556;55.748;13.194;2023-01-30T00:18:00;4.80;99.90
11772;DHT22;12556;55.748;13.194;2023-01-30T00:20:29;4.80;99.90
11772;DHT22;12556;55.748;13.194;2023-01-30T00:22:56;4.80;99.90
11772;DHT22;12556;55.748;13.194;2023-01-30T00:25:24;4.80;99.90
11772;DHT22;12556;55.748;13.194;2023-01-30T00:27:50;4.80;99.90
11772;DHT22;12556;55.748;13.194;2023-01-30T00:30:18;4.80;99.90
11772;DHT22;12556;55.748;13.194;2023-01-30T00:32:44;4.90;99.90
11772;DHT22;12556;55.748;13.194;2023-01-30T00:35:11;4.80;99.90
11772;DHT22;12556;55.748;13.194;2023-01-30T00:37:40;4.90;99.90
11772;DHT22;12556;55.748;13.194;2023-01-30T00:40:08;4.90;99.90
11772;DHT22;12556;55.748;13.194;2023-01-30T00:42:35;4.90;99.90
11772;DHT22;12556;55.748;13.194;2023-01-30T00:45:19;4.90;99.90
11772;DHT22;12556;55.748;13.194;2023-01-30T00:48:04;4.90;99.90
11772;DHT22;12556;55.748;13.194;2023-01-30T00:50:31;4.90;99.90
11772;DHT22;12556;55.748;13.194;2023-01-30T00:53:09;4.90;99.90
11772;DHT22;12556;55.748;13.194;2023-01-30T00:55:36;4.90;99.90
11772;DHT22;12556;55.748;13.194;2023-01-30T00:58:03;4.90;99.90
11772;DHT22;12556;55.748;13.194;2023-01-30T01:00:31;4.90;99.90
11772;DHT22;12556;55.748;13.194;2023-01-30T01:02:58;4.90;99.90
11772;DHT22;12556;55.748;13.194;2023-01-30T01:05:25;4.90;99.90
11772;DHT22;12556;55.748;13.194;2023-01-30T01:07:52;5.00;99.90
11772;DHT22;12556;55.748;13.194;2023-01-30T01:10:20;5.00;99.90
11772;DHT22;12556;55.748;13.194;2023-01-30T01:12:48;5.00;99.90
11772;DHT22;12556;55.748;13.194;2023-01-30T01:15:16;5.00;99.90
11772;DHT22;12556;55.748;13.194;2023-01-30T01:17:44;5.00;99.90
11772;DHT22;12556;55.748;13.194;2023-01-30T01:20:11;5.00;99.90
11772;DHT22;12556;55.748;13.194;2023-01-30T01:22:38;5.00;99.90
11772;DHT22;12556;55.748;13.194;2023-01-30T01:25:07;5.00;99.90
11772;DHT22;12556;55.748;13.194;2023-01-30T01:27:36;5.10;99.90
11772;DHT22;12556;55.748;13.194;2023-01-30T01:30:04;5.10;99.90
11772;DHT22;12556;55.748;13.194;2023-01-30T01:32:32;5.10;99.90
11772;DHT22;12556;55.748;13.194;2023-01-30T01:34:59;5.10;99.90
11772;DHT22;12556;55.748;13.194;2023-01-30T01:37:25;5.20;99.90
11772;DHT22;12556;55.748;13.194;2023-01-30T01:39:53;5.20;99.90
11772;DHT22;12556;55.748;13.194;2023-01-30T01:42:39;5.30;99.90
11772;DHT22;12556;55.748;13.194;2023-01-30T01:45:16;5.30;99.90
11772;DHT22;12556;55.748;13.194;2023-01-30T01:47:48;5.40;99.90
11772;DHT22;12556;55.748;13.194;2023-01-30T01:50:23;5.40;99.90
11772;DHT22;12556;55.748;13.194;2023-01-30T01:52:52;5.40;99.90
11772;DHT22;12556;55.748;13.194;2023-01-30T01:55:21;5.50;99.90
11772;DHT22;12556;55.748;13.194;2023-01-30T01:57:53;5.50;99.90
11772;DHT22;12556;55.748;13.194;2023-01-30T02:00:22;5.50;99.90
11772;DHT22;12556;55.748;13.194;2023-01-30T02:02:53;5.50;99.90
11772;DHT22;12556;55.748;13.194;2023-01-30T02:05:23;5.50;99.90
11772;DHT22;12556;55.748;13.194;2023-01-30T02:07:54;5.50;99.90
11772;DHT22;12556;55.748;13.194;2023-01-30T02:10:27;5.40;99.90
11772;DHT22;12556;55.748;13.194;2023-01-30T02:12:57;5.40;99.90
11772;DHT22;12556;55.748;13.194;2023-01-30T02:15:24;5.40;99.90
11772;DHT22;12556;55.748;13.194;2023-01-30T02:17:51;5.40;99.90
11772;DHT22;12556;55.748;13.194;2023-01-30T02:20:25;5.30;99.90
11772;DHT22;12556;55.748;13.194;2023-01-30T02:23:32;5.30;99.90
11772;DHT22;12556;55.748;13.194;2023-01-30T02:26:54;5.30;99.90
11772;DHT22;12556;55.748;13.194;2023-01-30T02:30:08;5.30;99.90
11772;DHT22;12556;55.748;13.194;2023-01-30T02:32:47;5.20;99.90
11772;DHT22;12556;55.748;13.194;2023-01-30T02:35:23;5.10;99.90
11772;DHT22;12556;55.748;13.194;2023-01-30T02:38:03;5.10;99.90
11772;DHT22;12556;55.748;13.194;2023-01-30T02:40:49;5.10;99.90
11772;DHT22;12556;55.748;13.194;2023-01-30T02:43:23;5.10;99.90
11772;DHT22;12556;55.748;13.194;2023-01-30T02:45:55;5.00;99.90
11772;DHT22;12556;55.748;13.194;2023-01-30T02:48:27;4.90;99.90
11772;DHT22;12556;55.748;13.194;2023-01-30T02:50:58;4.90;99.90
11772;DHT22;12556;55.748;13.194;2023-01-30T02:53:30;4.90;99.90
11772;DHT22;12556;55.748;13.194;2023-01-30T02:55:57;4.90;99.90
11772;DHT22;12556;55.748;13.194;2023-01-30T02:58:26;4.80;99.90
11772;DHT22;12556;55.748;13.194;2023-01-30T03:04:05;4.80;99.90
11772;DHT22;12556;55.748;13.194;2023-01-30T03:06:45;4.70;99.90
11772;DHT22;12556;55.748;13.194;2023-01-30T03:09:21;4.70;99.90
11772;DHT22;12556;55.748;13.194;2023-01-30T03:12:02;4.70;99.90
11772;DHT22;12556;55.748;13.194;2023-01-30T03:14:36;4.60;99.90
11772;DHT22;12556;55.748;13.194;2023-01-30T03:17:08;4.60;99.90
11772;DHT22;12556;55.748;13.194;2023-01-30T03:19:37;4.60;99.90
11772;DHT22;12556;55.748;13.194;2023-01-30T03:22:04;4.60;99.90
11772;DHT22;12556;55.748;13.194;2023-01-30T03:24:31;4.50;99.90
11772;DHT22;12556;55.748;13.194;2023-01-30T03:27:02;4.50;99.90
11772;DHT22;12556;55.748;13.194;2023-01-30T03:29:30;4.50;99.90
11772;DHT22;12556;55.748;13.194;2023-01-30T03:31:57;4.40;99.90
11772;DHT22;12556;55.748;13.194;2023-01-30T03:34:24;4.40;99.90
11772;DHT22;12556;55.748;13.194;2023-01-30T03:36:52;4.40;99.90
11772;DHT22;12556;55.748;13.194;2023-01-30T03:39:19;4.40;99.90
11772;DHT22;12556;55.748;13.194;2023-01-30T03:41:46;4.40;99.90
11772;DHT22;12556;55.748;13.194;2023-01-30T03:44:13;4.40;99.90
11772;DHT22;12556;55.748;13.194;2023-01-30T03:46:40;4.40;99.90
11772;DHT22;12556;55.748;13.194;2023-01-30T03:49:07;4.40;99.90
11772;DHT22;12556;55.748;13.194;2023-01-30T03:51:34;4.40;99.90
11772;DHT22;12556;55.748;13.194;2023-01-30T03:54:02;4.40;99.90
11772;DHT22;12556;55.748;13.194;2023-01-30T03:56:30;4.40;99.90
11772;DHT22;12556;55.748;13.194;2023-01-30T03:58:57;4.40;99.90
11772;DHT22;12556;55.748;13.194;2023-01-30T04:01:23;4.40;99.90
11772;DHT22;12556;55.748;13.194;2023-01-30T04:03:50;4.40;99.90
11772;DHT22;12556;55.748;13.194;2023-01-30T04:06:17;4.40;99.90
11772;DHT22;12556;55.748;13.194;2023-01-30T04:08:44;4.30;99.90
11772;DHT22;12556;55.748;13.194;2023-01-30T04:11:13;4.30;99.90
11772;DHT22;12556;55.748;13.194;2023-01-30T04:13:40;4.30;99.90
11772;DHT22;12556;55.748;13.194;2023-01-30T04:16:18;4.30;99.90
11772;DHT22;12556;55.748;13.194;2023-01-30T04:18:45;4.30;99.90
11772;DHT22;12556;55.748;13.194;2023-01-30T04:21:13;4.30;99.90
11772;DHT22;12556;55.748;13.194;2023-01-30T04:23:40;4.20;99.90
11772;DHT22;12556;55.748;13.194;2023-01-30T04:26:08;4.20;99.90
11772;DHT22;12556;55.748;13.194;2023-01-30T04:28:36;4.20;99.90
11772;DHT22;12556;55.748;13.194;2023-01-30T04:31:04;4.20;99.90
11772;DHT22;12556;55.748;13.194;2023-01-30T04:33:31;4.20;99.90
11772;DHT22;12556;55.748;13.194;2023-01-30T04:36:00;4.20;99.90
11772;DHT22;12556;55.748;13.194;2023-01-30T04:38:29;4.20;99.90
11772;DHT22;12556;55.748;13.194;2023-01-30T04:40:57;4.20;99.90
11772;DHT22;12556;55.748;13.194;2023-01-30T04:43:25;4.20;99.90
11772;DHT22;12556;55.748;13.194;2023-01-30T04:45:54;4.20;99.90
11772;DHT22;12556;55.748;13.194;2023-01-30T04:48:22;4.20;99.90
11772;DHT22;12556;55.748;13.194;2023-01-30T04:50:52;4.20;99.90
11772;DHT22;12556;55.748;13.194;2023-01-30T04:53:19;4.20;99.90
11772;DHT22;12556;55.748;13.194;2023-01-30T04:55:47;4.20;99.90
11772;DHT22;12556;55.748;13.194;2023-01-30T04:58:13;4.20;99.90
11772;DHT22;12556;55.748;13.194;2023-01-30T05:00:41;4.20;99.90
11772;DHT22;12556;55.748;13.194;2023-01-30T05:03:09;4.30;99.90
11772;DHT22;12556;55.748;13.194;2023-01-30T05:05:36;4.20;99.90
11772;DHT22;12556;55.748;13.194;2023-01-30T05:08:04;4.20;99.90
11772;DHT22;12556;55.748;13.194;2023-01-30T05:10:31;4.30;99.90
11772;DHT22;12556;55.748;13.194;2023-01-30T05:13:01;4.20;99.90
11772;DHT22;12556;55.748;13.194;2023-01-30T05:15:28;4.20;99.90
11772;DHT22;12556;55.748;13.194;2023-01-30T05:17:55;4.20;99.90
11772;DHT22;12556;55.748;13.194;2023-01-30T05:20:23;4.10;99.90
11772;DHT22;12556;55.748;13.194;2023-01-30T05:22:51;4.10;99.90
11772;DHT22;12556;55.748;13.194;2023-01-30T05:25:18;4.10;99.90
11772;DHT22;12556;55.748;13.194;2023-01-30T05:27:45;4.00;99.90
11772;DHT22;12556;55.748;13.194;2023-01-30T05:30:12;4.00;99.90
11772;DHT22;12556;55.748;13.194;2023-01-30T05:32:39;3.80;99.90
11772;DHT22;12556;55.748;13.194;2023-01-30T05:35:07;4.10;99.90
11772;DHT22;12556;55.748;13.194;2023-01-30T05:37:35;4.10;99.90
11772;DHT22;12556;55.748;13.194;2023-01-30T05:40:04;4.00;99.90
11772;DHT22;12556;55.748;13.194;2023-01-30T05:42:31;4.10;99.90
11772;DHT22;12556;55.748;13.194;2023-01-30T05:44:58;4.10;99.90
11772;DHT22;12556;55.748;13.194;2023-01-30T05:47:25;4.10;99.90
11772;DHT22;12556;55.748;13.194;2023-01-30T05:49:52;4.10;99.90
11772;DHT22;12556;55.748;13.194;2023-01-30T05:52:19;4.10;99.90
11772;DHT22;12556;55.748;13.194;2023-01-30T05:54:47;4.10;99.90
11772;DHT22;12556;55.748;13.194;2023-01-30T05:57:14;4.10;99.90
11772;DHT22;12556;55.748;13.194;2023-01-30T05:59:41;4.10;99.90
11772;DHT22;12556;55.748;13.194;2023-01-30T06:02:08;4.10;99.90
11772;DHT22;12556;55.748;13.194;2023-01-30T06:04:35;4.10;99.90
11772;DHT22;12556;55.748;13.194;2023-01-30T06:07:02;4.10;99.90
11772;DHT22;12556;55.748;13.194;2023-01-30T06:09:28;4.00;99.90
11772;DHT22;12556;55.748;13.194;2023-01-30T06:11:57;4.00;99.90
11772;DHT22;12556;55.748;13.194;2023-01-30T06:14:24;4.00;99.90
11772;DHT22;12556;55.748;13.194;2023-01-30T06:16:50;4.00;99.90
11772;DHT22;12556;55.748;13.194;2023-01-30T06:19:17;3.90;99.90
11772;DHT22;12556;55.748;13.194;2023-01-30T06:21:44;3.90;99.90
11772;DHT22;12556;55.748;13.194;2023-01-30T06:24:11;3.90;99.90
11772;DHT22;12556;55.748;13.194;2023-01-30T06:26:38;3.90;99.90
11772;DHT22;12556;55.748;13.194;2023-01-30T06:29:08;3.80;99.90
11772;DHT22;12556;55.748;13.194;2023-01-30T06:31:35;3.80;99.90
11772;DHT22;12556;55.748;13.194;2023-01-30T06:34:02;3.80;99.90
11772;DHT22;12556;55.748;13.194;2023-01-30T06:36:28;3.80;99.90
11772;DHT22;12556;55.748;13.194;2023-01-30T06:38:55;3.70;99.90
11772;DHT22;12556;55.748;13.194;2023-01-30T06:41:22;3.70;99.90
11772;DHT22;12556;55.748;13.194;2023-01-30T06:43:49;3.70;99.90
11772;DHT22;12556;55.748;13.194;2023-01-30T06:46:17;3.70;99.90
11772;DHT22;12556;55.748;13.194;2023-01-30T06:48:44;3.70;99.90
11772;DHT22;12556;55.748;13.194;2023-01-30T06:51:11;3.70;99.90
11772;DHT22;12556;55.748;13.194;2023-01-30T06:53:38;3.70;99.90
11772;DHT22;12556;55.748;13.194;2023-01-30T06:56:05;3.80;99.90
11772;DHT22;12556;55.748;13.194;2023-01-30T06:58:32;3.80;99.90
11772;DHT22;12556;55.748;13.194;2023-01-30T07:00:59;3.80;99.90
11772;DHT22;12556;55.748;13.194;2023-01-30T07:03:28;3.80;99.90
11772;DHT22;12556;55.748;13.194;2023-01-30T07:05:55;3.70;99.90
11772;DHT22;12556;55.748;13.194;2023-01-30T07:08:22;3.70;99.90
11772;DHT22;12556;55.748;13.194;2023-01-30T07:10:49;3.70;99.90
11772;DHT22;12556;55.748;13.194;2023-01-30T07:13:16;3.70;99.90
11772;DHT22;12556;55.748;13.194;2023-01-30T07:15:43;3.80;99.90
11772;DHT22;12556;55.748;13.194;2023-01-30T07:18:10;3.80;99.90
11772;DHT22;12556;55.748;13.194;2023-01-30T07:20:39;3.80;99.90
11772;DHT22;12556;55.748;13.194;2023-01-30T07:23:07;3.80;99.90
11772;DHT22;12556;55.748;13.194;2023-01-30T07:25:33;3.90;99.90
11772;DHT22;12556;55.748;13.194;2023-01-30T07:28:01;3.90;99.90
11772;DHT22;12556;55.748;13.194;2023-01-30T07:30:30;4.00;99.90
11772;DHT22;12556;55.748;13.194;2023-01-30T07:32:58;4.00;99.90
11772;DHT22;12556;55.748;13.194;2023-01-30T07:35:28;4.00;99.90
11772;DHT22;12556;55.748;13.194;2023-01-30T07:37:57;4.00;99.90
11772;DHT22;12556;55.748;13.194;2023-01-30T07:40:24;4.00;99.90
11772;DHT22;12556;55.748;13.194;2023-01-30T07:42:55;4.00;99.90
11772;DHT22;12556;55.748;13.194;2023-01-30T07:45:23;4.10;99.90
11772;DHT22;12556;55.748;13.194;2023-01-30T07:47:50;4.10;99.90
11772;DHT22;12556;55.748;13.194;2023-01-30T07:50:17;4.10;99.90
11772;DHT22;12556;55.748;13.194;2023-01-30T07:52:44;4.10;99.90
11772;DHT22;12556;55.748;13.194;2023-01-30T07:55:12;4.10;99.90
11772;DHT22;12556;55.748;13.194;2023-01-30T07:57:39;4.10;99.90
11772;DHT22;12556;55.748;13.194;2023-01-30T08:00:08;4.10;99.90
11772;DHT22;12556;55.748;13.194;2023-01-30T08:02:36;4.20;99.90
11772;DHT22;12556;55.748;13.194;2023-01-30T08:05:04;4.20;99.90
11772;DHT22;12556;55.748;13.194;2023-01-30T08:07:31;4.20;99.90
11772;DHT22;12556;55.748;13.194;2023-01-30T08:09:58;4.20;99.90
11772;DHT22;12556;55.748;13.194;2023-01-30T08:12:26;4.20;99.90
11772;DHT22;12556;55.748;13.194;2023-01-30T08:14:53;4.20;99.90
11772;DHT22;12556;55.748;13.194;2023-01-30T08:17:20;4.30;99.90
11772;DHT22;12556;55.748;13.194;2023-01-30T08:19:47;4.30;99.90
11772;DHT22;12556;55.748;13.194;2023-01-30T08:22:14;4.30;99.90
11772;DHT22;12556;55.748;13.194;2023-01-30T08:24:41;4.30;99.90
11772;DHT22;12556;55.748;13.194;2023-01-30T08:27:08;4.40;99.90
11772;DHT22;12556;55.748;13.194;2023-01-30T08:29:36;4.40;99.90
11772;DHT22;12556;55.748;13.194;2023-01-30T08:32:03;4.50;99.90
11772;DHT22;12556;55.748;13.194;2023-01-30T08:34:30;4.50;99.90
11772;DHT22;12556;55.748;13.194;2023-01-30T08:36:57;4.50;99.90
11772;DHT22;12556;55.748;13.194;2023-01-30T08:39:24;4.50;99.90
11772;DHT22;12556;55.748;13.194;2023-01-30T08:41:51;4.50;99.90
11772;DHT22;12556;55.748;13.194;2023-01-30T08:44:18;4.50;99.90
11772;DHT22;12556;55.748;13.194;2023-01-30T08:46:46;4.60;99.90
11772;DHT22;12556;55.748;13.194;2023-01-30T08:49:13;4.60;99.90
11772;DHT22;12556;55.748;13.194;2023-01-30T08:51:40;4.60;99.90
11772;DHT22;12556;55.748;13.194;2023-01-30T08:54:07;4.60;99.90
11772;DHT22;12556;55.748;13.194;2023-01-30T08:56:34;4.60;99.90
11772;DHT22;12556;55.748;13.194;2023-01-30T08:59:01;4.70;99.90
11772;DHT22;12556;55.748;13.194;2023-01-30T09:01:28;4.60;99.90
11772;DHT22;12556;55.748;13.194;2023-01-30T09:03:56;4.70;99.90
11772;DHT22;12556;55.748;13.194;2023-01-30T09:06:23;4.70;99.90
11772;DHT22;12556;55.748;13.194;2023-01-30T09:08:50;4.70;99.90
11772;DHT22;12556;55.748;13.194;2023-01-30T09:11:20;4.70;99.90
11772;DHT22;12556;55.748;13.194;2023-01-30T09:13:47;4.70;99.90
11772;DHT22;12556;55.748;13.194;2023-01-30T09:16:13;4.70;99.90
11772;DHT22;12556;55.748;13.194;2023-01-30T09:18:41;4.60;99.90
11772;DHT22;12556;55.748;13.194;2023-01-30T09:21:12;4.70;99.90
11772;DHT22;12556;55.748;13.194;2023-01-30T09:23:39;4.60;99.90
11772;DHT22;12556;55.748;13.194;2023-01-30T09:26:06;4.70;99.90
11772;DHT22;12556;55.748;13.194;2023-01-30T09:28:33;4.70;99.90
11772;DHT22;12556;55.748;13.194;2023-01-30T09:31:01;4.70;99.90
11772;DHT22;12556;55.748;13.194;2023-01-30T09:33:28;4.70;99.90
11772;DHT22;12556;55.748;13.194;2023-01-30T09:35:55;4.80;99.90
11772;DHT22;12556;55.748;13.194;2023-01-30T09:38:23;4.80;99.90
11772;DHT22;12556;55.748;13.194;2023-01-30T09:41:00;4.80;99.90
11772;DHT22;12556;55.748;13.194;2023-01-30T09:43:42;4.90;99.90
11772;DHT22;12556;55.748;13.194;2023-01-30T09:46:17;4.90;99.90
11772;DHT22;12556;55.748;13.194;2023-01-30T09:48:54;4.90;99.90
11772;DHT22;12556;55.748;13.194;2023-01-30T09:51:38;5.00;99.90
11772;DHT22;12556;55.748;13.194;2023-01-30T09:54:18;5.00;99.90
11772;DHT22;12556;55.748;13.194;2023-01-30T09:56:54;5.00;99.90
11772;DHT22;12556;55.748;13.194;2023-01-30T09:59:24;5.10;99.90
11772;DHT22;12556;55.748;13.194;2023-01-30T10:02:00;5.10;99.90
11772;DHT22;12556;55.748;13.194;2023-01-30T10:04:32;5.20;99.90
11772;DHT22;12556;55.748;13.194;2023-01-30T10:07:06;5.10;99.90
11772;DHT22;12556;55.748;13.194;2023-01-30T10:09:44;5.10;99.90
11772;DHT22;12556;55.748;13.194;2023-01-30T10:12:24;5.10;99.90
11772;DHT22;12556;55.748;13.194;2023-01-30T10:15:14;5.10;99.90
11772;DHT22;12556;55.748;13.194;2023-01-30T10:20:40;5.00;99.90
11772;DHT22;12556;55.748;13.194;2023-01-30T10:23:23;5.00;99.90
11772;DHT22;12556;55.748;13.194;2023-01-30T10:25:55;5.00;99.90
11772;DHT22;12556;55.748;13.194;2023-01-30T10:28:26;5.00;99.90
11772;DHT22;12556;55.748;13.194;2023-01-30T10:30:59;5.00;99.90
11772;DHT22;12556;55.748;13.194;2023-01-30T10:33:31;4.90;99.90
11772;DHT22;12556;55.748;13.194;2023-01-30T10:36:02;5.00;99.90
11772;DHT22;12556;55.748;13.194;2023-01-30T10:38:36;5.00;99.90
11772;DHT22;12556;55.748;13.194;2023-01-30T10:41:12;5.00;99.90
11772;DHT22;12556;55.748;13.194;2023-01-30T10:43:43;5.00;99.90
11772;DHT22;12556;55.748;13.194;2023-01-30T10:46:22;5.00;99.90
11772;DHT22;12556;55.748;13.194;2023-01-30T10:48:56;4.80;99.90
11772;DHT22;12556;55.748;13.194;2023-01-30T10:51:36;5.00;99.90
11772;DHT22;12556;55.748;13.194;2023-01-30T10:54:10;5.00;99.90
11772;DHT22;12556;55.748;13.194;2023-01-30T10:56:44;5.00;99.90
11772;DHT22;12556;55.748;13.194;2023-01-30T10:59:22;5.00;99.90
11772;DHT22;12556;55.748;13.194;2023-01-30T11:01:58;5.00;99.90
11772;DHT22;12556;55.748;13.194;2023-01-30T11:04:29;5.00;99.90
11772;DHT22;12556;55.748;13.194;2023-01-30T11:06:59;5.00;99.90
11772;DHT22;12556;55.748;13.194;2023-01-30T11:09:38;5.10;99.90
11772;DHT22;12556;55.748;13.194;2023-01-30T11:12:06;5.00;99.90
11772;DHT22;12556;55.748;13.194;2023-01-30T11:14:53;5.00;99.90
11772;DHT22;12556;55.748;13.194;2023-01-30T11:17:28;5.00;99.90
11772;DHT22;12556;55.748;13.194;2023-01-30T11:19:56;5.10;99.90
11772;DHT22;12556;55.748;13.194;2023-01-30T11:22:34;5.10;99.90
11772;DHT22;12556;55.748;13.194;2023-01-30T11:25:05;5.10;99.90
11772;DHT22;12556;55.748;13.194;2023-01-30T11:27:34;5.10;99.90
11772;DHT22;12556;55.748;13.194;2023-01-30T11:30:11;5.10;99.90
11772;DHT22;12556;55.748;13.194;2023-01-30T11:32:41;5.20;99.90
11772;DHT22;12556;55.748;13.194;2023-01-30T11:35:33;5.20;99.90
11772;DHT22;12556;55.748;13.194;2023-01-30T11:38:18;5.20;99.90
11772;DHT22;12556;55.748;13.194;2023-01-30T11:40:46;5.20;99.90
11772;DHT22;12556;55.748;13.194;2023-01-30T11:43:14;5.20;99.90
11772;DHT22;12556;55.748;13.194;2023-01-30T11:45:44;5.30;99.90
11772;DHT22;12556;55.748;13.194;2023-01-30T11:48:15;5.30;99.90
11772;DHT22;12556;55.748;13.194;2023-01-30T11:50:46;5.30;99.90
11772;DHT22;12556;55.748;13.194;2023-01-30T11:53:26;5.40;99.90
11772;DHT22;12556;55.748;13.194;2023-01-30T11:55:58;5.40;99.90
11772;DHT22;12556;55.748;13.194;2023-01-30T11:58:30;5.40;99.90
11772;DHT22;12556;55.748;13.194;2023-01-30T12:00:58;5.40;99.90
11772;DHT22;12556;55.748;13.194;2023-01-30T12:03:26;5.50;99.90
11772;DHT22;12556;55.748;13.194;2023-01-30T12:05:54;5.40;99.90
11772;DHT22;12556;55.748;13.194;2023-01-30T12:08:25;5.40;99.90
11772;DHT22;12556;55.748;13.194;2023-01-30T12:10:55;5.50;99.90
11772;DHT22;12556;55.748;13.194;2023-01-30T12:13:30;5.60;99.90
11772;DHT22;12556;55.748;13.194;2023-01-30T12:16:14;5.60;99.90
11772;DHT22;12556;55.748;13.194;2023-01-30T12:18:49;5.60;99.90
11772;DHT22;12556;55.748;13.194;2023-01-30T12:21:35;5.60;99.90
11772;DHT22;12556;55.748;13.194;2023-01-30T12:24:14;5.70;99.90
11772;DHT22;12556;55.748;13.194;2023-01-30T12:26:45;5.80;99.90
11772;DHT22;12556;55.748;13.194;2023-01-30T12:29:22;5.80;99.90
11772;DHT22;12556;55.748;13.194;2023-01-30T12:31:53;5.70;99.90
11772;DHT22;12556;55.748;13.194;2023-01-30T12:34:24;5.70;99.90
11772;DHT22;12556;55.748;13.194;2023-01-30T12:37:00;5.70;99.90
11772;DHT22;12556;55.748;13.194;2023-01-30T12:39:40;5.80;99.90
11772;DHT22;12556;55.748;13.194;2023-01-30T12:45:19;5.90;99.90
11772;DHT22;12556;55.748;13.194;2023-01-30T12:48:01;5.90;99.90
11772;DHT22;12556;55.748;13.194;2023-01-30T12:50:38;5.90;99.90
11772;DHT22;12556;55.748;13.194;2023-01-30T12:53:23;5.80;99.90
11772;DHT22;12556;55.748;13.194;2023-01-30T12:56:02;5.80;99.90
11772;DHT22;12556;55.748;13.194;2023-01-30T12:58:36;5.70;99.90
11772;DHT22;12556;55.748;13.194;2023-01-30T13:01:19;5.70;99.90
11772;DHT22;12556;55.748;13.194;2023-01-30T13:03:55;5.70;99.90
11772;DHT22;12556;55.748;13.194;2023-01-30T13:06:44;5.80;99.90
11772;DHT22;12556;55.748;13.194;2023-01-30T13:09:38;5.80;99.90
11772;DHT22;12556;55.748;13.194;2023-01-30T13:12:12;5.80;99.90
11772;DHT22;12556;55.748;13.194;2023-01-30T13:14:47;5.80;99.90
11772;DHT22;12556;55.748;13.194;2023-01-30T13:20:15;5.80;99.90
11772;DHT22;12556;55.748;13.194;2023-01-30T13:22:48;5.70;99.90
11772;DHT22;12556;55.748;13.194;2023-01-30T13:25:22;5.70;99.90
11772;DHT22;12556;55.748;13.194;2023-01-30T13:27:54;5.80;99.90
11772;DHT22;12556;55.748;13.194;2023-01-30T13:30:22;5.70;99.90
11772;DHT22;12556;55.748;13.194;2023-01-30T13:32:53;5.70;99.90
11772;DHT22;12556;55.748;13.194;2023-01-30T13:35:25;5.70;99.90
11772;DHT22;12556;55.748;13.194;2023-01-30T13:37:56;5.70;99.90
11772;DHT22;12556;55.748;13.194;2023-01-30T13:40:27;5.70;99.90
11772;DHT22;12556;55.748;13.194;2023-01-30T13:42:59;5.70;99.90
11772;DHT22;12556;55.748;13.194;2023-01-30T13:45:31;5.70;99.90
11772;DHT22;12556;55.748;13.194;2023-01-30T13:48:12;5.70;99.90
11772;DHT22;12556;55.748;13.194;2023-01-30T13:50:53;5.70;99.90
11772;DHT22;12556;55.748;13.194;2023-01-30T13:53:27;5.70;99.90
11772;DHT22;12556;55.748;13.194;2023-01-30T13:55:57;5.70;99.90
11772;DHT22;12556;55.748;13.194;2023-01-30T13:58:39;5.70;99.90
11772;DHT22;12556;55.748;13.194;2023-01-30T14:01:10;5.70;99.90
11772;DHT22;12556;55.748;13.194;2023-01-30T14:03:40;5.70;99.90
11772;DHT22;12556;55.748;13.194;2023-01-30T14:06:33;5.70;99.90
11772;DHT22;12556;55.748;13.194;2023-01-30T14:09:05;5.70;99.90
11772;DHT22;12556;55.748;13.194;2023-01-30T14:11:48;5.70;99.90
11772;DHT22;12556;55.748;13.194;2023-01-30T14:14:27;5.70;99.90
11772;DHT22;12556;55.748;13.194;2023-01-30T14:16:56;5.70;99.90
11772;DHT22;12556;55.748;13.194;2023-01-30T14:22:25;5.70;99.90
11772;DHT22;12556;55.748;13.194;2023-01-30T14:34:47;5.70;99.90
11772;DHT22;12556;55.748;13.194;2023-01-30T14:40:44;5.70;99.90
11772;DHT22;12556;55.748;13.194;2023-01-30T14:43:48;5.70;99.90
11772;DHT22;12556;55.748;13.194;2023-01-30T14:46:43;5.70;99.90
11772;DHT22;12556;55.748;13.194;2023-01-30T14:49:29;5.80;99.90
11772;DHT22;12556;55.748;13.194;2023-01-30T14:51:59;5.70;99.90
11772;DHT22;12556;55.748;13.194;2023-01-30T14:54:41;5.70;99.90
11772;DHT22;12556;55.748;13.194;2023-01-30T14:57:18;5.70;99.90
11772;DHT22;12556;55.748;13.194;2023-01-30T14:59:49;5.80;99.90
11772;DHT22;12556;55.748;13.194;2023-01-30T15:02:22;5.70;99.90
11772;DHT22;12556;55.748;13.194;2023-01-30T15:04:57;5.70;99.90
11772;DHT22;12556;55.748;13.194;2023-01-30T15:07:31;5.70;99.90
11772;DHT22;12556;55.748;13.194;2023-01-30T15:10:05;5.60;99.90
11772;DHT22;12556;55.748;13.194;2023-01-30T15:12:54;5.60;99.90
11772;DHT22;12556;55.748;13.194;2023-01-30T15:15:29;5.60;99.90
11772;DHT22;12556;55.748;13.194;2023-01-30T15:18:08;5.60;99.90
11772;DHT22;12556;55.748;13.194;2023-01-30T15:20:49;5.50;99.90
11772;DHT22;12556;55.748;13.194;2023-01-30T15:23:53;5.50;99.90
11772;DHT22;12556;55.748;13.194;2023-01-30T15:26:29;5.40;99.90
11772;DHT22;12556;55.748;13.194;2023-01-30T15:31:55;5.30;99.90
11772;DHT22;12556;55.748;13.194;2023-01-30T15:34:23;5.30;99.90
11772;DHT22;12556;55.748;13.194;2023-01-30T15:36:52;5.20;99.90
11772;DHT22;12556;55.748;13.194;2023-01-30T15:39:22;5.20;99.90
11772;DHT22;12556;55.748;13.194;2023-01-30T15:41:51;5.20;99.90
11772;DHT22;12556;55.748;13.194;2023-01-30T15:44:49;5.10;99.90
11772;DHT22;12556;55.748;13.194;2023-01-30T15:50:28;5.10;99.90
11772;DHT22;12556;55.748;13.194;2023-01-30T15:52:55;5.00;99.90
11772;DHT22;12556;55.748;13.194;2023-01-30T15:55:27;5.00;99.90
11772;DHT22;12556;55.748;13.194;2023-01-30T15:57:56;4.90;99.90
11772;DHT22;12556;55.748;13.194;2023-01-30T16:00:26;4.90;99.90
11772;DHT22;12556;55.748;13.194;2023-01-30T16:02:55;4.90;99.90
11772;DHT22;12556;55.748;13.194;2023-01-30T16:05:23;4.80;99.90
11772;DHT22;12556;55.748;13.194;2023-01-30T16:07:52;4.80;99.90
11772;DHT22;12556;55.748;13.194;2023-01-30T16:10:21;4.80;99.90
11772;DHT22;12556;55.748;13.194;2023-01-30T16:12:51;4.40;99.90
11772;DHT22;12556;55.748;13.194;2023-01-30T16:15:25;4.70;99.90
11772;DHT22;12556;55.748;13.194;2023-01-30T16:18:00;4.80;99.90
11772;DHT22;12556;55.748;13.194;2023-01-30T16:20:27;4.70;99.90
11772;DHT22;12556;55.748;13.194;2023-01-30T16:22:55;4.70;99.90
11772;DHT22;12556;55.748;13.194;2023-01-30T16:25:24;4.70;99.90
11772;DHT22;12556;55.748;13.194;2023-01-30T16:27:55;4.70;99.90
11772;DHT22;12556;55.748;13.194;2023-01-30T16:30:25;4.70;99.90